• Join FlightAware (Why Join?)
  • Login
  • US Flag 
10:23PM EST


 

Airport Tracker/Info


-or-


 

Live Flight TrackerFlight Track Log ✈ CPZ6446 ✈ 27-Jul-2014 ✈ KLAX - KSFO

Flight Track Log - Related Links

Times and Time Zones

All times are in EDT time to prevent confusion due to time zone crossing. See the CPZ6446 flight status page for this flight to view local times or setup timezone preferences in your user account.

Time Position Orientation Groundspeed Altitude Reporting Facility
EDT Latitude Longitude Course Direction KTS MPH feet Rate Location/Type
11:04PM 33.9344 -118.4381 270° West 151 174 1,500  Level Los Angeles Center
11:05PM 33.9253 -118.5253 260° West 232 267 3,400 2,280 Climbing Los Angeles Center
11:06PM 33.9161 -118.6142 263° West 261 300 6,300 2,700 Climbing Los Angeles Center
11:07PM 33.9058 -118.7083 263° West 282 325 9,000 2,160 Climbing Los Angeles Center
11:08PM 34.0888 -118.9551 287° West  Level FlightAware Approximate
11:08PM 33.8964 -118.8086 264° West 305 351 10,800  Level Los Angeles Center
11:09PM 34.1167 -119.0612 270° West  Level FlightAware Approximate
11:09PM 33.9225 -118.9211 286° West 351 404 12,800  Level Los Angeles Center
11:10PM 33.9567 -119.0372 290° West 365 420 14,900 1,860 Climbing Los Angeles Center
11:11PM 34.0264 -119.1350 311° West 381 438 16,700 1,740 Climbing Los Angeles Center
11:12PM 34.1200 -119.2567 313° West 413 475 18,600 1,800 Climbing Los Angeles Center
11:13PM 34.1994 -119.3608 313° West 418 481 20,400 1,560 Climbing Los Angeles Center
11:14PM 34.2783 -119.4683 312° West 423 487 21,900 1,320 Climbing Los Angeles Center
11:15PM 34.3611 -119.5778 313° West 438 504 23,200 1,260 Climbing Los Angeles Center
11:16PM 34.4456 -119.6889 313° West 445 512 24,600 1,200 Climbing Los Angeles Center
11:17PM 34.5336 -119.8008 314° West 452 520 25,700 960 Climbing Los Angeles Center
11:18PM 34.6411 -119.9144 319° Northwest 462 532 26,600 720 Climbing Los Angeles Center
11:19PM 34.7389 -120.0225 318° Northwest 470 541 27,300 780 Climbing Los Angeles Center
11:20PM 34.8503 -120.1431 318° Northwest 480 552 28,300 720 Climbing Los Angeles Center
11:21PM 34.9503 -120.2525 318° Northwest 484 557 28,800 540 Climbing Los Angeles Center
11:23PM 35.0511 -120.3642 318° Northwest 491 565 29,500 360 Climbing Los Angeles Center
11:24PM 35.2303 -120.5656 317° Northwest 498 573 30,000 120 Climbing Oakland Center
11:25PM 35.3344 -120.6814 318° Northwest 498 573 30,000  Level Oakland Center
11:26PM 35.4569 -120.8194 317° Northwest 498 573 30,000  Level Oakland Center
11:27PM 35.5611 -120.9264 320° Northwest 490 564 30,000  Level Oakland Center
11:28PM 35.6669 -121.0175 325° Northwest 467 537 30,000  Level Oakland Center
11:29PM 35.7742 -121.1100 325° Northwest 468 539 30,000  Level Oakland Center
11:30PM 35.8833 -121.2017 326° Northwest 473 544 30,000  Level Oakland Center
11:32PM 35.9906 -121.2953 325° Northwest 474 545 30,000 -540 Level Oakland Center
11:33PM 36.0978 -121.3883 325° Northwest 473 544 29,000 -1,020 Descending Oakland Center
11:34PM 36.2019 -121.4817 324° Northwest 465 535 28,000 -1,020 Descending Oakland Center
11:35PM 36.3044 -121.5697 325° Northwest 453 521 27,000 -1,380 Descending Oakland Center
11:36PM 36.3994 -121.6533 325° Northwest 423 487 25,300 -1,920 Descending Oakland Center
11:37PM 36.4900 -121.7350 324° Northwest 406 467 23,100 -2,100 Descending Oakland Center
11:38PM 36.5828 -121.8167 325° Northwest 386 444 21,000 -2,040 Descending Oakland Center
11:39PM 36.6647 -121.8936 323° Northwest 372 428 19,000 -1,920 Descending Oakland Center
11:40PM 36.7469 -121.9611 327° Northwest 359 413 17,200 -1,800 Descending Oakland Center
11:41PM 36.8392 -121.9897 346° North 343 395 15,400 -1,920 Descending Oakland Center
11:42PM 36.9475 -122.0183 348° North 335 386 13,300 -1,860 Descending Oakland Center
11:43PM 37.0356 -122.0425 348° North 331 381 11,700 -1,320 Descending Oakland Center
11:44PM 37.1217 -122.0661 348° North 321 369 10,600 -1,200 Descending Oakland Center
11:45PM 37.2056 -122.0867 349° North 312 359 9,300 -1,500 Descending Oakland Center
11:46PM 37.2850 -122.1089 347° North 297 342 7,600 -1,680 Descending Oakland Center
11:47PM 37.3644 -122.1303 348° North 293 337 6,000 -840 Descending Oakland Center
11:48PM 37.4375 -122.1372 356° North 277 319 6,000 -540 Level Oakland Center
11:49PM 37.5044 -122.1297 North 246 283 5,000 -1,020 Descending Oakland Center
11:50PM 37.5353 -122.1800 308° West 213 245 4,000 -1,500 Descending Oakland Center
11:51PM 37.5603 -122.2367 299° West 194 223 2,000 -1,500 Descending Oakland Center
11:52PM 37.5858 -122.2972 298° West 175 201 1,000 -840 Descending Oakland Center
11:53PM 37.6031 -122.3397 297° West 154 177 300 -720 Descending Oakland Center